createdAt,value
2018-06-04T00:01:58.946Z,20.93
2018-06-04T00:05:02.268Z,20.57
2018-06-04T00:08:05.746Z,19.57
2018-06-04T00:11:08.944Z,19.83
2018-06-04T00:14:12.147Z,19.53
2018-06-04T00:17:15.335Z,20.93
2018-06-04T00:20:18.506Z,20.57
2018-06-04T00:23:21.690Z,20.73
2018-06-04T00:26:24.841Z,19.27
2018-06-04T00:29:28.019Z,18.87
2018-06-04T00:32:31.184Z,20.40
2018-06-04T00:35:34.348Z,18.40
2018-06-04T00:38:37.498Z,21.57
2018-06-04T00:41:40.676Z,21.13
2018-06-04T00:44:43.957Z,20.07
2018-06-04T00:47:47.214Z,19.87
2018-06-04T00:50:50.408Z,22.20
2018-06-04T00:53:53.584Z,20.90
2018-06-04T00:56:56.817Z,21.23
2018-06-04T00:59:59.999Z,21.73
2018-06-04T01:03:03.226Z,22.60
2018-06-04T01:06:06.405Z,21.90
2018-06-04T01:09:09.540Z,21.60
2018-06-04T01:12:12.754Z,26.73
2018-06-04T01:15:15.927Z,42.40
2018-06-04T01:18:19.091Z,43.27
2018-06-04T01:21:22.277Z,32.20
2018-06-04T01:24:25.454Z,25.40
2018-06-04T01:27:28.639Z,35.63
2018-06-04T01:30:31.822Z,37.83
2018-06-04T01:33:35.014Z,24.73
2018-06-04T01:36:38.195Z,27.17
2018-06-04T01:39:41.367Z,28.87
2018-06-04T01:42:44.563Z,38.80
2018-06-04T01:45:47.711Z,29.37
2018-06-04T01:48:50.882Z,35.50
2018-06-04T01:51:54.047Z,36.23
2018-06-04T01:54:57.274Z,39.03
2018-06-04T01:58:00.446Z,37.63
2018-06-04T02:01:03.612Z,29.17
2018-06-04T02:04:06.768Z,24.50
2018-06-04T02:07:09.937Z,47.13
2018-06-04T02:10:13.061Z,41.93
2018-06-04T02:13:16.210Z,31.60
2018-06-04T02:16:19.402Z,26.87
2018-06-04T02:19:22.523Z,27.23
2018-06-04T02:22:25.662Z,165.60
2018-06-04T02:25:28.863Z,53.93
2018-06-04T02:28:31.979Z,27.67
2018-06-04T02:31:35.201Z,45.37
2018-06-04T02:34:38.337Z,33.03
2018-06-04T02:37:41.439Z,41.40
2018-06-04T02:40:44.620Z,34.23
2018-06-04T02:43:47.775Z,45.10
2018-06-04T02:46:50.913Z,37.83
2018-06-04T02:49:54.500Z,41.97
2018-06-04T02:52:57.634Z,37.40
2018-06-04T02:56:00.847Z,35.63
2018-06-04T02:59:04.040Z,30.13
2018-06-04T03:02:07.351Z,38.97
2018-06-04T03:05:10.505Z,42.90
2018-06-04T03:08:13.722Z,56.10
2018-06-04T03:11:16.880Z,32.47
2018-06-04T03:14:20.114Z,29.03
2018-06-04T03:17:23.294Z,37.23
2018-06-04T03:20:26.485Z,28.30
2018-06-04T03:23:29.822Z,32.50
2018-06-04T03:26:34.180Z,38.47
2018-06-04T03:29:37.377Z,36.70
2018-06-04T03:32:40.531Z,35.00
2018-06-04T03:35:43.686Z,37.17
2018-06-04T03:38:46.809Z,58.70
2018-06-04T03:41:50.062Z,78.80
2018-06-04T03:44:53.531Z,67.13
2018-06-04T03:47:57.872Z,76.03
2018-06-04T03:51:01.128Z,52.13
2018-06-04T03:54:04.349Z,34.03
2018-06-04T03:57:07.498Z,33.93
2018-06-04T04:00:10.649Z,34.00
2018-06-04T04:03:13.820Z,39.60
2018-06-04T04:06:16.969Z,30.07
2018-06-04T04:09:20.187Z,39.93
2018-06-04T04:12:23.339Z,35.23
2018-06-04T04:15:26.584Z,36.90
2018-06-04T04:18:29.752Z,36.83
2018-06-04T04:21:32.991Z,44.53
2018-06-04T04:24:36.427Z,35.77
2018-06-04T04:27:39.668Z,74.83
2018-06-04T04:30:42.885Z,57.13
2018-06-04T04:33:46.066Z,49.80
2018-06-04T04:36:49.204Z,36.23
2018-06-04T04:39:52.527Z,34.73
2018-06-04T04:42:55.743Z,35.50
2018-06-04T04:45:58.949Z,33.60
2018-06-04T04:49:02.125Z,34.47
2018-06-04T04:52:05.352Z,34.57
2018-06-04T04:55:08.538Z,33.93
2018-06-04T04:58:11.722Z,33.60
2018-06-04T05:01:14.916Z,31.70
2018-06-04T05:04:18.100Z,38.17
2018-06-04T05:07:21.336Z,38.80
2018-06-04T05:10:24.520Z,32.43
2018-06-04T05:13:27.698Z,30.67
2018-06-04T05:16:30.897Z,29.93
2018-06-04T05:19:34.134Z,27.03
2018-06-04T05:22:37.299Z,31.10
2018-06-04T05:25:40.476Z,27.87
2018-06-04T05:28:43.622Z,29.13
2018-06-04T05:31:46.868Z,27.50
2018-06-04T05:34:50.012Z,28.27
2018-06-04T05:37:55.164Z,57.43
2018-06-04T05:40:58.325Z,35.00
2018-06-04T05:44:01.477Z,31.87
2018-06-04T05:47:04.633Z,31.23
2018-06-04T05:50:07.772Z,26.13
2018-06-04T05:53:10.931Z,31.63
2018-06-04T05:56:14.135Z,56.67
2018-06-04T05:59:17.271Z,32.20
2018-06-04T06:02:20.459Z,26.17
2018-06-04T06:05:23.691Z,23.90
2018-06-04T06:08:27.711Z,25.83
2018-06-04T06:11:30.963Z,24.77
2018-06-04T06:14:34.133Z,26.70
2018-06-04T06:17:37.307Z,25.17
2018-06-04T06:20:40.507Z,24.50
2018-06-04T06:23:43.743Z,22.50
2018-06-04T06:26:46.935Z,21.47
2018-06-04T06:29:50.063Z,25.63
2018-06-04T06:32:53.254Z,71.97
2018-06-04T06:35:56.418Z,50.00
2018-06-04T06:38:59.549Z,23.80
2018-06-04T06:42:02.741Z,25.03
2018-06-04T06:45:05.954Z,26.23
2018-06-04T06:48:09.140Z,24.23
2018-06-04T06:51:12.311Z,18.43
2018-06-04T06:54:15.525Z,21.43
2018-06-04T06:57:18.708Z,23.57
2018-06-04T07:00:21.935Z,19.07
2018-06-04T07:03:25.118Z,31.30
2018-06-04T07:06:28.270Z,37.67
2018-06-04T07:09:31.464Z,21.80
2018-06-04T07:12:34.642Z,25.43
2018-06-04T07:15:37.813Z,20.47
2018-06-04T07:18:41.786Z,19.47
2018-06-04T07:21:45.025Z,25.40
2018-06-04T07:24:49.131Z,22.67
2018-06-04T07:27:52.333Z,22.20
2018-06-04T07:30:55.504Z,22.50
2018-06-04T07:33:58.775Z,19.27
2018-06-04T07:37:02.040Z,18.27
2018-06-04T07:40:05.291Z,24.83
2018-06-04T07:43:08.511Z,18.77
2018-06-04T07:46:11.729Z,18.90
2018-06-04T07:49:16.109Z,18.80
2018-06-04T07:52:19.749Z,39.87
2018-06-04T07:55:23.002Z,44.60
2018-06-04T07:58:26.239Z,27.90
2018-06-04T08:01:29.462Z,20.57
2018-06-04T08:04:32.696Z,23.70
2018-06-04T08:07:36.019Z,22.93
2018-06-04T08:10:39.938Z,19.87
2018-06-04T08:13:43.252Z,17.10
2018-06-04T08:16:46.393Z,18.60
2018-06-04T08:19:49.582Z,17.67
2018-06-04T08:22:52.741Z,14.40
2018-06-04T08:25:56.506Z,14.90
2018-06-04T08:28:59.697Z,18.00
2018-06-04T08:32:02.863Z,16.83
2018-06-04T08:35:06.080Z,16.83
2018-06-04T08:38:09.316Z,12.30
2018-06-04T08:41:12.478Z,13.23
2018-06-04T08:44:15.659Z,14.90
2018-06-04T08:47:18.842Z,15.40
2018-06-04T08:50:22.066Z,13.07
2018-06-04T08:53:25.330Z,12.47
2018-06-04T08:56:28.588Z,12.60
2018-06-04T08:59:31.892Z,17.37
2018-06-04T09:02:35.153Z,24.93
2018-06-04T09:05:38.440Z,12.90
2018-06-04T09:08:41.722Z,15.70
2018-06-04T09:11:45.005Z,13.53
2018-06-04T09:14:48.458Z,16.30
2018-06-04T09:17:51.880Z,16.87
2018-06-04T09:20:55.033Z,14.30
2018-06-04T09:23:58.378Z,13.60
2018-06-04T09:27:01.572Z,17.17
2018-06-04T09:30:04.845Z,12.13
2018-06-04T09:33:08.102Z,13.97
2018-06-04T09:36:12.761Z,13.00
2018-06-04T09:39:16.085Z,15.43
2018-06-04T09:42:19.280Z,11.90
2018-06-04T09:45:23.638Z,16.27
2018-06-04T09:48:26.861Z,11.40
2018-06-04T09:51:30.141Z,14.10
2018-06-04T09:54:33.351Z,17.07
2018-06-04T09:57:36.579Z,10.90
2018-06-04T10:00:39.968Z,13.20
2018-06-04T10:03:43.217Z,12.67
2018-06-04T10:06:47.330Z,11.60
2018-06-04T10:09:50.588Z,12.03
2018-06-04T10:12:53.825Z,13.43
2018-06-04T10:15:57.847Z,14.97
2018-06-04T10:19:01.099Z,19.60
2018-06-04T10:22:04.413Z,21.33
2018-06-04T10:25:07.706Z,12.53
2018-06-04T10:28:11.023Z,13.63
2018-06-04T10:31:15.253Z,11.03
2018-06-04T10:34:18.447Z,10.07
2018-06-04T10:37:21.668Z,10.70
2018-06-04T10:40:24.926Z,10.23
2018-06-04T10:43:28.106Z,12.23
2018-06-04T10:46:31.415Z,10.90
2018-06-04T10:49:35.894Z,10.23
2018-06-04T10:52:39.198Z,11.30
2018-06-04T10:55:42.414Z,11.27
2018-06-04T10:58:45.709Z,13.23
2018-06-04T11:01:48.925Z,12.23
2018-06-04T11:04:52.152Z,38.23
2018-06-04T11:07:55.290Z,15.30
2018-06-04T11:10:58.576Z,14.13
2018-06-04T11:14:01.728Z,18.90
2018-06-04T11:17:04.967Z,14.40
2018-06-04T11:20:08.161Z,10.13
2018-06-04T11:23:11.416Z,12.20
2018-06-04T11:26:14.644Z,13.60
2018-06-04T11:29:17.844Z,16.10
2018-06-04T11:32:21.137Z,13.53
2018-06-04T11:35:24.412Z,11.53
2018-06-04T11:38:27.729Z,13.13
2018-06-04T11:41:31.033Z,12.47
2018-06-04T11:44:34.292Z,12.67
2018-06-04T11:47:37.515Z,9.87
2018-06-04T11:50:40.739Z,9.83
2018-06-04T11:53:43.972Z,11.87
2018-06-04T11:56:47.267Z,15.70
2018-06-04T11:59:50.592Z,11.50
2018-06-04T12:02:53.962Z,10.43
2018-06-04T12:05:57.175Z,9.40
2018-06-04T12:09:01.071Z,10.73
2018-06-04T12:12:04.325Z,10.47
2018-06-04T12:15:07.561Z,10.23
2018-06-04T12:18:10.793Z,11.47
2018-06-04T12:21:14.344Z,33.57
2018-06-04T12:24:17.583Z,21.90
2018-06-04T12:27:20.795Z,28.90
2018-06-04T12:30:24.062Z,20.87
2018-06-04T12:33:27.437Z,11.00
2018-06-04T12:36:30.826Z,11.83
2018-06-04T12:39:34.160Z,12.37
2018-06-04T12:42:37.407Z,11.10
2018-06-04T12:45:40.595Z,10.20
2018-06-04T12:48:43.936Z,11.53
2018-06-04T12:51:47.152Z,11.87
2018-06-04T12:54:50.462Z,16.07
2018-06-04T12:57:54.804Z,11.43
2018-06-04T13:00:58.164Z,9.73
2018-06-04T13:04:01.405Z,11.43
2018-06-04T13:07:04.742Z,12.70
2018-06-04T13:10:11.662Z,12.83
2018-06-04T13:13:14.935Z,9.97
2018-06-04T13:16:18.430Z,15.90
2018-06-04T13:19:22.714Z,13.47
2018-06-04T13:22:25.975Z,13.93
2018-06-04T13:25:29.207Z,10.07
2018-06-04T13:28:32.429Z,86.37
2018-06-04T13:31:35.683Z,11.77
2018-06-04T13:34:38.930Z,15.93
2018-06-04T13:37:42.123Z,15.83
2018-06-04T13:40:45.405Z,32.77
2018-06-04T13:43:48.633Z,13.17
2018-06-04T13:46:51.902Z,19.57
2018-06-04T13:49:55.373Z,21.17
2018-06-04T13:52:58.633Z,11.90
2018-06-04T13:56:02.185Z,12.00
2018-06-04T13:59:06.116Z,10.53
2018-06-04T14:02:09.456Z,8.33
2018-06-04T14:05:12.924Z,64.40
2018-06-04T14:59:04.689Z,9.77
2018-06-04T15:02:08.166Z,8.63
2018-06-04T15:05:11.494Z,16.57
2018-06-04T15:08:14.826Z,15.47
2018-06-04T15:11:18.469Z,14.20
2018-06-04T15:14:21.900Z,28.83
2018-06-04T15:17:25.253Z,27.47
2018-06-04T15:20:28.871Z,13.87
2018-06-04T15:23:32.817Z,9.30
2018-06-04T15:26:37.348Z,10.37
2018-06-04T15:29:40.681Z,9.10
2018-06-04T15:32:44.024Z,9.43
2018-06-04T15:35:47.939Z,8.63
2018-06-04T15:38:51.319Z,9.17
2018-06-04T15:41:54.609Z,12.77
2018-06-04T15:44:57.919Z,9.40
2018-06-04T15:48:01.206Z,9.37
2018-06-04T15:51:04.720Z,12.17
2018-06-04T15:54:08.101Z,10.43
2018-06-04T15:57:13.882Z,14.00
2018-06-04T16:00:17.314Z,11.70
2018-06-04T16:03:20.983Z,9.83
2018-06-04T16:06:24.710Z,10.50
2018-06-04T16:09:28.008Z,10.93
2018-06-04T16:12:32.025Z,11.70
2018-06-04T16:15:36.489Z,12.07
2018-06-04T16:18:39.877Z,10.97
2018-06-04T16:21:43.320Z,12.23
2018-06-04T16:24:46.763Z,10.57
2018-06-04T16:27:50.072Z,11.57
2018-06-04T16:30:53.580Z,10.43
2018-06-04T16:33:57.152Z,11.63
2018-06-04T16:37:01.331Z,11.13
2018-06-04T16:40:05.576Z,12.73
2018-06-04T16:43:09.225Z,13.90
2018-06-04T16:46:12.816Z,13.03
2018-06-04T16:49:16.362Z,16.63
2018-06-04T16:52:19.785Z,12.00
2018-06-04T16:55:23.892Z,12.37
2018-06-04T16:58:28.118Z,11.60
2018-06-04T17:01:32.306Z,15.40
2018-06-04T17:04:35.730Z,17.77
2018-06-04T17:07:39.204Z,13.03
2018-06-04T17:10:42.625Z,11.00
2018-06-04T17:13:46.273Z,10.93
2018-06-04T17:16:49.809Z,10.53
2018-06-04T17:19:53.389Z,12.70
2018-06-04T17:22:57.289Z,11.87
2018-06-04T17:26:00.830Z,10.60
2018-06-04T17:29:04.489Z,11.70
2018-06-04T17:32:07.972Z,15.53
2018-06-04T17:35:11.456Z,10.50
2018-06-04T17:38:15.093Z,10.00
2018-06-04T17:41:18.501Z,11.07
2018-06-04T17:44:21.923Z,8.93
2018-06-04T17:47:26.339Z,9.57
2018-06-04T17:50:29.872Z,8.93
2018-06-04T17:53:33.481Z,9.47
2018-06-04T17:56:36.912Z,12.67
2018-06-04T17:59:40.521Z,10.40
2018-06-04T18:02:44.252Z,7.70
2018-06-04T18:05:47.752Z,7.37
2018-06-04T18:08:51.911Z,6.70
2018-06-04T18:11:55.384Z,7.83
2018-06-04T18:14:58.968Z,9.03
2018-06-04T18:18:02.376Z,9.80
2018-06-04T18:21:05.717Z,5.90
2018-06-04T18:24:09.101Z,6.33
2018-06-04T18:27:13.149Z,7.83
2018-06-04T18:30:16.898Z,8.73
2018-06-04T18:33:20.484Z,5.83
2018-06-04T18:36:24.003Z,14.80
2018-06-04T18:39:27.931Z,12.47
2018-06-04T18:42:31.603Z,9.80
2018-06-04T18:45:35.287Z,10.23
2018-06-04T18:48:38.741Z,10.83
2018-06-04T18:51:42.268Z,7.93
2018-06-04T18:54:46.748Z,5.83
2018-06-04T18:57:50.932Z,7.90
2018-06-04T19:00:54.420Z,7.77
2018-06-04T19:03:58.096Z,10.27
2018-06-04T19:07:01.649Z,10.00
2018-06-04T19:10:05.324Z,9.00
2018-06-04T19:13:08.947Z,12.13
2018-06-04T19:16:12.449Z,13.50
2018-06-04T19:19:15.879Z,11.80
2018-06-04T19:22:19.677Z,37.50
2018-06-04T19:25:24.105Z,35.30
2018-06-04T19:28:27.642Z,31.90
2018-06-04T19:31:31.310Z,27.03
2018-06-04T19:34:34.801Z,17.53
2018-06-04T19:37:38.212Z,17.07
2018-06-04T19:40:41.805Z,13.37
2018-06-04T19:43:45.280Z,14.33
2018-06-04T19:46:48.806Z,12.40
2018-06-04T19:49:52.282Z,13.33
2018-06-04T19:52:56.006Z,15.17
2018-06-04T19:55:59.485Z,14.33
2018-06-04T19:59:02.898Z,14.83
2018-06-04T20:02:06.451Z,13.93
2018-06-04T20:05:09.833Z,13.37
2018-06-04T20:08:13.297Z,13.53
2018-06-04T20:11:16.909Z,16.20
2018-06-04T20:14:20.551Z,22.90
2018-06-04T20:17:24.182Z,15.57
2018-06-04T20:20:28.029Z,15.43
2018-06-04T20:23:31.836Z,14.50
2018-06-04T20:26:36.224Z,16.17
2018-06-04T20:29:39.557Z,14.43
2018-06-04T20:32:42.847Z,16.20
2018-06-04T20:35:46.128Z,15.17
2018-06-04T20:38:49.498Z,14.20
2018-06-04T20:41:53.913Z,14.30
2018-06-04T20:44:57.207Z,16.87
2018-06-04T20:48:00.526Z,15.63
2018-06-04T20:51:03.945Z,14.20
2018-06-04T20:54:07.269Z,14.23
2018-06-04T20:57:11.350Z,31.77
2018-06-04T21:00:14.580Z,16.50
2018-06-04T21:03:18.025Z,14.70
2018-06-04T21:06:21.370Z,15.57
2018-06-04T21:09:24.758Z,15.73
2018-06-04T21:12:28.052Z,14.40
2018-06-04T21:15:31.283Z,13.83
2018-06-04T21:18:34.554Z,13.63
2018-06-04T21:21:37.848Z,14.77
2018-06-04T21:24:41.095Z,15.27
2018-06-04T21:27:44.415Z,16.40
2018-06-04T21:30:47.655Z,15.40
2018-06-04T21:33:50.948Z,14.93
2018-06-04T21:36:54.180Z,15.27
2018-06-04T21:39:57.413Z,15.03
2018-06-04T21:43:00.677Z,14.40
2018-06-04T21:46:04.001Z,14.47
2018-06-04T21:49:07.295Z,14.67
2018-06-04T21:52:10.630Z,15.33
2018-06-04T21:55:13.906Z,17.30
2018-06-04T21:58:17.241Z,14.83
2018-06-04T22:01:20.479Z,15.60
2018-06-04T22:04:23.699Z,15.27
2018-06-04T22:07:26.907Z,15.97
2018-06-04T22:10:30.100Z,16.37
2018-06-04T22:13:33.276Z,14.10
2018-06-04T22:16:36.499Z,14.67
2018-06-04T22:19:39.696Z,15.60
2018-06-04T22:22:43.062Z,14.10
2018-06-04T22:25:46.292Z,14.67
2018-06-04T22:28:49.480Z,14.33
2018-06-04T22:31:52.664Z,18.13
2018-06-04T22:34:55.860Z,16.80
2018-06-04T22:37:59.080Z,24.27
2018-06-04T22:41:02.388Z,21.60
2018-06-04T22:44:05.755Z,14.27
2018-06-04T22:47:08.939Z,17.37
2018-06-04T22:50:12.194Z,15.93
2018-06-04T22:53:15.385Z,16.27
2018-06-04T22:56:18.533Z,14.47
2018-06-04T22:59:21.719Z,15.70
2018-06-04T23:02:24.971Z,15.67
2018-06-04T23:05:28.251Z,15.50
2018-06-04T23:08:31.438Z,16.87
2018-06-04T23:11:34.624Z,15.83
2018-06-04T23:14:37.796Z,17.03
2018-06-04T23:17:40.990Z,17.60
2018-06-04T23:20:44.132Z,16.63
2018-06-04T23:23:47.350Z,16.33
2018-06-04T23:26:50.507Z,16.13
2018-06-04T23:29:53.694Z,14.87
2018-06-04T23:32:56.876Z,15.80
2018-06-04T23:36:00.052Z,15.50
2018-06-04T23:39:03.254Z,14.93
2018-06-04T23:42:06.435Z,15.97
2018-06-04T23:45:09.570Z,17.13
2018-06-04T23:48:12.759Z,16.80
2018-06-04T23:51:15.870Z,16.70
2018-06-04T23:54:19.054Z,16.53
2018-06-04T23:57:22.216Z,17.00
